Happy Valentine's Day! 

Flight Track Log - Related Links

Times and Time Zones

All times are in EDT time to prevent confusion due to time zone crossing. See the EJA673 flight status page for this flight to view local times or setup timezone preferences in your user account.


Time Position Orientation Groundspeed Altitude Reporting Facility
EDT Latitude Longitude Course Direction KTS MPH feet Rate Location/Type
Sun 05:18:29 PM 37.1575 -93.3717 144° Southeast 237 273 7,900  Level Kansas City Center
Sun 05:19:30 PM 37.1144 -93.3250 139° Southeast 213 245 10,800 2,880 Climbing Kansas City Center
Sun 05:20:34 PM 37.0469 -93.2525 139° Southeast 244 281 13,900 3,072 Climbing Kansas City Center
Sun 05:21:35 PM 36.9892 -93.1883 138° Southeast 269 310 17,200 2,468 Climbing Kansas City Center
Sun 05:22:38 PM 36.9289 -93.1242 140° Southeast 279 321 19,000 871 Climbing Kansas City Center
Sun 05:23:00 PM 36.3859 -92.6158 144° Southeast  Level Estimated
Sun 05:23:39 PM 36.8333 -93.0739 157° South 362 417 19,000  Level Kansas City Center
Sun 05:24:42 PM 36.7250 -93.0442 168° South 391 450 19,000  Level Kansas City Center
Sun 05:25:43 PM 36.6189 -93.0142 167° South 391 450 19,000 242 Level Kansas City Center
Sun 05:26:46 PM 36.5153 -92.9886 169° South 351 404 19,500 823 Climbing Kansas City Center
Sun 05:27:47 PM 36.4197 -92.9647 169° South 348 400 20,700 1,098 Climbing Kansas City Center
Sun 05:28:08 PM 36.3692 -92.9550 171° South 359 413 21,000 1,333 Climbing Memphis Center
Sun 05:29:08 PM 36.2594 -92.9283 169° South 376 433 22,500 1,000 Climbing Memphis Center
Sun 05:30:08 PM 36.1514 -92.9094 172° South 391 450 23,000 1,300 Climbing Memphis Center
Sun 05:31:08 PM 36.0481 -92.8678 162° South 396 456 25,100 1,900 Climbing Memphis Center
Sun 05:32:08 PM 35.9664 -92.7756 138° Southeast 380 437 26,800 1,550 Climbing Memphis Center
Sun 05:33:08 PM 35.8889 -92.6808 135° Southeast 387 445 28,200 1,200 Climbing Memphis Center
Sun 05:34:08 PM 35.8053 -92.5864 137° Southeast 398 458 29,200 1,050 Climbing Memphis Center
Sun 05:35:08 PM 35.7214 -92.4844 135° Southeast 416 479 30,300 1,050 Climbing Memphis Center
Sun 05:36:08 PM 35.6375 -92.3853 136° Southeast 416 479 31,300 1,000 Climbing Memphis Center
Sun 05:37:08 PM 35.5494 -92.2886 138° Southeast 416 479 32,300 900 Climbing Memphis Center
Sun 05:38:08 PM 35.4633 -92.1897 137° Southeast 416 479 33,100 850 Climbing Memphis Center
Sun 05:39:08 PM 35.3792 -92.0886 136° Southeast 416 479 34,000 850 Climbing Memphis Center
Sun 05:40:08 PM 35.2889 -91.9875 138° Southeast 416 479 34,800 500 Climbing Memphis Center
Sun 05:41:08 PM 35.2025 -91.8869 136° Southeast 427 491 35,000 100 Climbing Memphis Center
Sun 05:42:08 PM 35.1078 -91.7811 138° Southeast 440 506 35,000  Level Memphis Center
Sun 05:43:08 PM 35.0172 -91.6781 137° Southeast 440 506 35,000 300 Level Memphis Center
Sun 05:44:08 PM 34.9325 -91.5781 136° Southeast 435 501 35,600 950 Climbing Memphis Center
Sun 05:45:08 PM 34.8561 -91.4986 140° Southeast 428 493 36,900 1,250 Climbing Memphis Center
Sun 05:46:08 PM 34.7736 -91.4039 137° Southeast 411 473 38,100 1,100 Climbing Memphis Center
Sun 05:47:08 PM 34.6886 -91.3092 137° Southeast 411 473 39,100 900 Climbing Memphis Center
Sun 05:48:08 PM 34.6039 -91.2125 137° Southeast 419 482 39,900 700 Climbing Memphis Center
Sun 05:49:08 PM 34.5169 -91.1158 137° Southeast 424 488 40,500 550 Climbing Memphis Center
Sun 05:50:08 PM 34.4256 -91.0144 138° Southeast 437 503 41,000 250 Climbing Memphis Center
Sun 05:51:08 PM 34.3258 -90.9056 138° Southeast 448 516 41,000  Level Memphis Center
Sun 05:52:08 PM 34.2303 -90.7992 137° Southeast 448 516 41,000  Level Memphis Center
Sun 05:53:08 PM 34.1408 -90.6983 137° Southeast 454 522 41,000 50 Level Memphis Center
Sun 05:54:08 PM 34.0472 -90.5978 138° Southeast 449 517 41,100 400 Climbing Memphis Center
Sun 05:55:08 PM 33.9578 -90.4975 137° Southeast 439 505 41,800 750 Climbing Memphis Center
Sun 05:56:08 PM 33.8681 -90.3997 138° Southeast 439 505 42,600 600 Climbing Memphis Center
Sun 05:57:08 PM 33.7886 -90.3122 138° Southeast 434 499 43,000 133 Climbing Memphis Center
Sun 05:59:08 PM 33.6028 -90.1078 137° Southeast 446 513 43,000  Level Memphis Center
Sun 06:00:08 PM 33.5128 -90.0108 138° Southeast 446 513 43,000  Level Memphis Center
Sun 06:01:08 PM 33.4247 -89.9142 137° Southeast 435 501 43,000  Level Memphis Center
Sun 06:02:08 PM 33.3367 -89.8178 138° Southeast 435 501 43,000  Level Memphis Center
Sun 06:03:08 PM 33.2486 -89.7239 138° Southeast 435 501 43,000  Level Memphis Center
Sun 06:04:08 PM 33.1603 -89.6278 138° Southeast 435 501 43,000  Level Memphis Center
Sun 06:05:08 PM 33.0742 -89.5367 138° Southeast 430 495 43,000  Level Memphis Center
Sun 06:06:08 PM 32.9858 -89.4433 138° Southeast 430 495 43,000  Level Memphis Center
Sun 06:07:08 PM 32.8975 -89.3503 138° Southeast 430 495 43,000  Level Memphis Center
Sun 06:08:08 PM 32.8111 -89.2597 139° Southeast 425 489 43,000  Level Memphis Center
Sun 06:09:08 PM 32.7247 -89.1669 138° Southeast 425 489 43,000  Level Memphis Center
Sun 06:10:08 PM 32.6361 -89.0744 139° Southeast 420 483 43,000  Level Memphis Center
Sun 06:11:08 PM 32.5494 -88.9819 138° Southeast 420 483 43,000  Level Memphis Center
Sun 06:12:08 PM 32.5000 -88.8572 115° Southeast 410 472 43,000  Level Memphis Center
Sun 06:13:08 PM 32.4983 -88.7242 91° East 383 441 43,000 -500 Level Memphis Center
Sun 06:16:08 PM 32.5269 -88.2933 85° East 444 511 41,000 -500 Descending Atlanta Center
Sun 06:17:08 PM 32.5361 -88.1483 86° East 438 504 41,000  Level Atlanta Center
Sun 06:18:08 PM 32.5425 -88.0108 87° East 433 498 41,000  Level Atlanta Center
Sun 06:19:08 PM 32.5489 -87.8781 87° East 438 504 41,000  Level Atlanta Center
Sun 06:20:08 PM 32.5533 -87.7378 88° East 438 504 41,000 -200 Level Atlanta Center
Sun 06:21:08 PM 32.5656 -87.5978 84° East 432 497 40,600 -700 Descending Atlanta Center
Sun 06:22:08 PM 32.5925 -87.4583 77° East 432 497 39,600 -1,050 Descending Atlanta Center
Sun 06:23:08 PM 32.6214 -87.3164 76° East 432 497 38,500 -1,100 Descending Atlanta Center
Sun 06:24:08 PM 32.6481 -87.1744 77° East 432 497 37,400 -1,150 Descending Atlanta Center
Sun 06:25:08 PM 32.6725 -87.0294 79° East 432 497 36,200 -1,300 Descending Atlanta Center
Sun 06:26:08 PM 32.6842 -86.8892 84° East 432 497 34,800 -1,400 Descending Atlanta Center
Sun 06:27:08 PM 32.6919 -86.7364 86° East 438 504 33,400 -900 Descending Atlanta Center
Sun 06:28:08 PM 32.6886 -86.5958 92° East 438 504 33,000 -200 Descending Atlanta Center
Sun 06:29:08 PM 32.6917 -86.4478 89° East 438 504 33,000  Level Atlanta Center
Sun 06:30:08 PM 32.6925 -86.2850 90° East 438 504 33,000 -250 Level Atlanta Center
Sun 06:31:08 PM 32.6931 -86.1344 90° East 443 510 32,500 -750 Descending Atlanta Center
Sun 06:32:08 PM 32.6975 -85.9889 88° East 443 510 31,500 -1,250 Descending Atlanta Center
Sun 06:33:08 PM 32.6958 -85.8406 91° East 443 510 30,000 -1,500 Descending Atlanta Center
Sun 06:34:08 PM 32.6956 -85.6925 90° East 443 510 28,500 -1,400 Descending Atlanta Center
Sun 06:35:08 PM 32.6975 -85.5469 89° East 443 510 27,200 -1,450 Descending Atlanta Center
Sun 06:36:08 PM 32.6972 -85.4014 90° East 443 510 25,600 -1,550 Descending Atlanta Center
Sun 06:37:08 PM 32.6967 -85.2533 90° East 443 510 24,100 -1,300 Descending Atlanta Center
Sun 06:38:08 PM 32.6981 -85.1078 89° East 443 510 23,000 -1,400 Descending Atlanta Center
Sun 06:39:08 PM 32.6969 -84.9669 90° East 437 503 21,300 -2,500 Descending Atlanta Center
Sun 06:40:08 PM 32.6981 -84.8336 89° East 420 483 18,000 -3,200 Descending Atlanta Center
Sun 06:41:08 PM 32.6964 -84.7250 91° East 394 453 14,900 -3,050 Descending Atlanta Center
Sun 06:42:08 PM 32.6972 -84.6042 89° East 371 427 11,900 -1,950 Descending Atlanta Center
Sun 06:43:08 PM 32.6956 -84.5006 91° East 342 394 11,000 -450 Descending Atlanta Center
Sun 06:44:08 PM 32.6958 -84.3844 90° East 336 387 11,000  Level Atlanta Center
Sun 06:45:08 PM 32.6961 -84.2633 90° East 347 399 11,000 -300 Level Atlanta Center
Sun 06:46:08 PM 32.6964 -84.1400 90° East 359 413 10,400 -1,200 Descending Atlanta Center
Sun 06:47:08 PM 32.6964 -84.0461 90° East 337 388 8,600 -2,150 Descending Atlanta Center
Sun 06:48:08 PM 32.6964 -83.9550 90° East 295 339 6,100 -2,250 Descending Atlanta Center
Sun 06:49:08 PM 32.6961 -83.8661 90° East 270 311 4,100 -1,550 Descending Atlanta Center
Sun 06:50:08 PM 32.7022 -83.7822 85° East 259 298 3,000 -600 Descending Atlanta Center
Sun 06:51:08 PM 32.7564 -83.7497 27° Northeast 199 229 2,900 -400 Descending Atlanta Center
Sun 06:52:08 PM 32.7878 -83.6906 58° Northeast 190 219 2,200 4,050 Descending Atlanta Center
Sun 06:53:08 PM 32.8189 -83.6408 53° Northeast 190 219 11,000 8,800 Climbing Atlanta Center
Sun 06:55:00 PM 32.6928 -83.6492 90° East  Level Estimated
Sun 07:02:00 PM 32.6928 -83.6492 90° East  Level Estimated
Sun 07:03:00 PM 32.6928 -83.6492 90° East  Level Estimated

Login

Don't have an account? Register now (free) for customized features, flight alerts, and more!